sensor_id;sensor_type;location;lat;lon;timestamp;temperature;humidity
21039;DHT22;10678;51.002;4.786;2023-02-26T00:02:17;0.60;99.90
21039;DHT22;10678;51.002;4.786;2023-02-26T00:04:42;0.60;99.90
21039;DHT22;10678;51.002;4.786;2023-02-26T00:07:08;0.50;99.90
21039;DHT22;10678;51.002;4.786;2023-02-26T00:09:34;0.50;99.90
21039;DHT22;10678;51.002;4.786;2023-02-26T00:12:00;0.40;99.90
21039;DHT22;10678;51.002;4.786;2023-02-26T00:14:27;0.40;99.90
21039;DHT22;10678;51.002;4.786;2023-02-26T00:19:22;0.40;99.90
21039;DHT22;10678;51.002;4.786;2023-02-26T00:21:48;0.40;99.90
21039;DHT22;10678;51.002;4.786;2023-02-26T00:24:14;0.40;99.90
21039;DHT22;10678;51.002;4.786;2023-02-26T00:26:39;0.30;99.90
21039;DHT22;10678;51.002;4.786;2023-02-26T00:29:05;0.30;99.90
21039;DHT22;10678;51.002;4.786;2023-02-26T00:31:31;0.40;99.90
21039;DHT22;10678;51.002;4.786;2023-02-26T00:33:57;0.40;99.90
21039;DHT22;10678;51.002;4.786;2023-02-26T00:41:44;0.30;99.90
21039;DHT22;10678;51.002;4.786;2023-02-26T00:44:10;0.30;99.90
21039;DHT22;10678;51.002;4.786;2023-02-26T00:50:13;0.20;99.90
21039;DHT22;10678;51.002;4.786;2023-02-26T00:53:03;0.20;99.90
21039;DHT22;10678;51.002;4.786;2023-02-26T00:55:31;0.20;99.90
21039;DHT22;10678;51.002;4.786;2023-02-26T00:57:57;0.10;99.90
21039;DHT22;10678;51.002;4.786;2023-02-26T01:00:22;0.10;99.90
21039;DHT22;10678;51.002;4.786;2023-02-26T01:02:48;0.10;99.90
21039;DHT22;10678;51.002;4.786;2023-02-26T01:05:15;0.00;99.90
21039;DHT22;10678;51.002;4.786;2023-02-26T01:08:19;0.00;99.90
21039;DHT22;10678;51.002;4.786;2023-02-26T01:10:48;0.00;99.90
21039;DHT22;10678;51.002;4.786;2023-02-26T01:13:14;0.10;99.90
21039;DHT22;10678;51.002;4.786;2023-02-26T01:15:46;0.10;99.90
21039;DHT22;10678;51.002;4.786;2023-02-26T01:18:17;0.10;99.90
21039;DHT22;10678;51.002;4.786;2023-02-26T01:20:53;0.20;99.90
21039;DHT22;10678;51.002;4.786;2023-02-26T01:23:24;0.20;99.90
21039;DHT22;10678;51.002;4.786;2023-02-26T01:26:04;0.30;99.90
21039;DHT22;10678;51.002;4.786;2023-02-26T01:28:31;0.30;99.90
21039;DHT22;10678;51.002;4.786;2023-02-26T01:31:00;0.30;99.90
21039;DHT22;10678;51.002;4.786;2023-02-26T01:36:08;0.40;99.90
21039;DHT22;10678;51.002;4.786;2023-02-26T01:41:47;0.50;99.90
21039;DHT22;10678;51.002;4.786;2023-02-26T01:44:25;0.50;99.90
21039;DHT22;10678;51.002;4.786;2023-02-26T01:49:42;0.70;99.90
21039;DHT22;10678;51.002;4.786;2023-02-26T01:55:11;0.90;99.90
21039;DHT22;10678;51.002;4.786;2023-02-26T01:57:37;1.10;99.90
21039;DHT22;10678;51.002;4.786;2023-02-26T02:00:04;1.30;99.90
21039;DHT22;10678;51.002;4.786;2023-02-26T02:02:30;1.50;99.90
21039;DHT22;10678;51.002;4.786;2023-02-26T02:04:56;1.60;99.90
21039;DHT22;10678;51.002;4.786;2023-02-26T02:07:22;1.70;99.90
21039;DHT22;10678;51.002;4.786;2023-02-26T02:09:48;1.70;99.90
21039;DHT22;10678;51.002;4.786;2023-02-26T02:14:45;1.70;99.90
21039;DHT22;10678;51.002;4.786;2023-02-26T02:17:26;1.80;99.90
21039;DHT22;10678;51.002;4.786;2023-02-26T02:20:25;1.80;99.90
21039;DHT22;10678;51.002;4.786;2023-02-26T02:31:36;1.40;99.90
21039;DHT22;10678;51.002;4.786;2023-02-26T02:40:00;1.40;99.90
21039;DHT22;10678;51.002;4.786;2023-02-26T02:42:31;1.40;99.90
21039;DHT22;10678;51.002;4.786;2023-02-26T02:45:02;1.40;99.90
21039;DHT22;10678;51.002;4.786;2023-02-26T02:47:33;1.20;99.90
21039;DHT22;10678;51.002;4.786;2023-02-26T02:50:14;1.20;99.90
21039;DHT22;10678;51.002;4.786;2023-02-26T02:52:49;1.20;99.90
21039;DHT22;10678;51.002;4.786;2023-02-26T02:55:27;1.30;99.90
21039;DHT22;10678;51.002;4.786;2023-02-26T02:58:07;1.40;99.90
21039;DHT22;10678;51.002;4.786;2023-02-26T03:00:39;1.30;99.90
21039;DHT22;10678;51.002;4.786;2023-02-26T03:05:50;1.10;99.90
21039;DHT22;10678;51.002;4.786;2023-02-26T03:08:20;1.20;99.90
21039;DHT22;10678;51.002;4.786;2023-02-26T03:10:46;1.10;99.90
21039;DHT22;10678;51.002;4.786;2023-02-26T03:13:17;1.00;99.90
21039;DHT22;10678;51.002;4.786;2023-02-26T03:21:16;1.00;99.90
21039;DHT22;10678;51.002;4.786;2023-02-26T03:24:21;0.90;99.90
21039;DHT22;10678;51.002;4.786;2023-02-26T03:26:57;0.90;99.90
21039;DHT22;10678;51.002;4.786;2023-02-26T03:29:49;0.90;99.90
21039;DHT22;10678;51.002;4.786;2023-02-26T03:32:23;1.00;99.90
21039;DHT22;10678;51.002;4.786;2023-02-26T03:35:07;0.90;99.90
21039;DHT22;10678;51.002;4.786;2023-02-26T03:37:40;0.90;99.90
21039;DHT22;10678;51.002;4.786;2023-02-26T03:40:24;1.00;99.90
21039;DHT22;10678;51.002;4.786;2023-02-26T03:42:54;1.10;99.90
21039;DHT22;10678;51.002;4.786;2023-02-26T03:45:26;1.00;99.90
21039;DHT22;10678;51.002;4.786;2023-02-26T03:47:53;0.80;99.90
21039;DHT22;10678;51.002;4.786;2023-02-26T03:52:54;0.90;99.90
21039;DHT22;10678;51.002;4.786;2023-02-26T03:55:37;0.90;99.90
21039;DHT22;10678;51.002;4.786;2023-02-26T03:58:03;0.90;99.90
21039;DHT22;10678;51.002;4.786;2023-02-26T04:00:30;0.80;99.90
21039;DHT22;10678;51.002;4.786;2023-02-26T04:03:03;0.90;99.90
21039;DHT22;10678;51.002;4.786;2023-02-26T04:05:34;0.80;99.90
21039;DHT22;10678;51.002;4.786;2023-02-26T04:08:01;0.80;99.90
21039;DHT22;10678;51.002;4.786;2023-02-26T04:10:40;0.90;99.90
21039;DHT22;10678;51.002;4.786;2023-02-26T04:13:07;0.90;99.90
21039;DHT22;10678;51.002;4.786;2023-02-26T04:15:32;0.80;99.90
21039;DHT22;10678;51.002;4.786;2023-02-26T04:17:58;0.90;99.90
21039;DHT22;10678;51.002;4.786;2023-02-26T04:20:24;0.90;99.90
21039;DHT22;10678;51.002;4.786;2023-02-26T04:22:50;0.90;99.90
21039;DHT22;10678;51.002;4.786;2023-02-26T04:25:15;0.90;99.90
21039;DHT22;10678;51.002;4.786;2023-02-26T04:27:41;0.90;99.90
21039;DHT22;10678;51.002;4.786;2023-02-26T04:30:07;0.80;99.90
21039;DHT22;10678;51.002;4.786;2023-02-26T04:32:33;0.90;99.90
21039;DHT22;10678;51.002;4.786;2023-02-26T04:34:59;0.90;99.90
21039;DHT22;10678;51.002;4.786;2023-02-26T04:37:24;0.90;99.90
21039;DHT22;10678;51.002;4.786;2023-02-26T04:39:50;0.80;99.90
21039;DHT22;10678;51.002;4.786;2023-02-26T04:42:15;0.90;99.90
21039;DHT22;10678;51.002;4.786;2023-02-26T04:44:41;0.90;99.90
21039;DHT22;10678;51.002;4.786;2023-02-26T04:47:06;1.00;99.90
21039;DHT22;10678;51.002;4.786;2023-02-26T04:49:32;0.90;99.90
21039;DHT22;10678;51.002;4.786;2023-02-26T04:51:59;0.90;99.90
21039;DHT22;10678;51.002;4.786;2023-02-26T04:54:24;0.80;99.90
21039;DHT22;10678;51.002;4.786;2023-02-26T04:56:50;0.90;99.90
21039;DHT22;10678;51.002;4.786;2023-02-26T04:59:15;0.80;99.90
21039;DHT22;10678;51.002;4.786;2023-02-26T05:01:41;0.70;99.90
21039;DHT22;10678;51.002;4.786;2023-02-26T05:04:07;0.70;99.90
21039;DHT22;10678;51.002;4.786;2023-02-26T05:06:32;0.70;99.90
21039;DHT22;10678;51.002;4.786;2023-02-26T05:08:58;0.70;99.90
21039;DHT22;10678;51.002;4.786;2023-02-26T05:11:23;0.70;99.90
21039;DHT22;10678;51.002;4.786;2023-02-26T05:13:49;0.80;99.90
21039;DHT22;10678;51.002;4.786;2023-02-26T05:16:15;0.80;99.90
21039;DHT22;10678;51.002;4.786;2023-02-26T05:18:40;0.70;99.90
21039;DHT22;10678;51.002;4.786;2023-02-26T05:21:06;0.80;99.90
21039;DHT22;10678;51.002;4.786;2023-02-26T05:23:32;0.70;99.90
21039;DHT22;10678;51.002;4.786;2023-02-26T05:25:58;0.70;99.90
21039;DHT22;10678;51.002;4.786;2023-02-26T05:28:24;0.70;99.90
21039;DHT22;10678;51.002;4.786;2023-02-26T05:30:50;0.60;99.90
21039;DHT22;10678;51.002;4.786;2023-02-26T05:33:16;0.60;99.90
21039;DHT22;10678;51.002;4.786;2023-02-26T05:35:42;0.60;99.90
21039;DHT22;10678;51.002;4.786;2023-02-26T05:38:08;0.70;99.90
21039;DHT22;10678;51.002;4.786;2023-02-26T05:40:33;0.70;99.90
21039;DHT22;10678;51.002;4.786;2023-02-26T05:43:00;0.60;99.90
21039;DHT22;10678;51.002;4.786;2023-02-26T05:45:26;0.60;99.90
21039;DHT22;10678;51.002;4.786;2023-02-26T05:47:51;0.80;99.90
21039;DHT22;10678;51.002;4.786;2023-02-26T05:50:17;0.60;99.90
21039;DHT22;10678;51.002;4.786;2023-02-26T05:52:43;0.50;99.90
21039;DHT22;10678;51.002;4.786;2023-02-26T05:55:09;0.40;99.90
21039;DHT22;10678;51.002;4.786;2023-02-26T05:57:34;0.40;99.90
21039;DHT22;10678;51.002;4.786;2023-02-26T06:00:00;0.50;99.90
21039;DHT22;10678;51.002;4.786;2023-02-26T06:02:26;0.50;99.90
21039;DHT22;10678;51.002;4.786;2023-02-26T06:04:51;0.50;99.90
21039;DHT22;10678;51.002;4.786;2023-02-26T06:07:17;0.50;99.90
21039;DHT22;10678;51.002;4.786;2023-02-26T06:09:43;0.50;99.90
21039;DHT22;10678;51.002;4.786;2023-02-26T06:12:09;0.60;99.90
21039;DHT22;10678;51.002;4.786;2023-02-26T06:14:35;0.50;99.90
21039;DHT22;10678;51.002;4.786;2023-02-26T06:17:02;0.50;99.90
21039;DHT22;10678;51.002;4.786;2023-02-26T06:19:28;0.40;99.90
21039;DHT22;10678;51.002;4.786;2023-02-26T06:21:53;0.40;99.90
21039;DHT22;10678;51.002;4.786;2023-02-26T06:24:19;0.40;99.90
21039;DHT22;10678;51.002;4.786;2023-02-26T06:26:45;0.40;99.90
21039;DHT22;10678;51.002;4.786;2023-02-26T06:29:10;0.30;99.90
21039;DHT22;10678;51.002;4.786;2023-02-26T06:31:36;0.30;99.90
21039;DHT22;10678;51.002;4.786;2023-02-26T06:34:02;0.30;99.90
21039;DHT22;10678;51.002;4.786;2023-02-26T06:36:27;0.30;99.90
21039;DHT22;10678;51.002;4.786;2023-02-26T06:38:53;0.40;99.90
21039;DHT22;10678;51.002;4.786;2023-02-26T06:41:19;0.40;99.90
21039;DHT22;10678;51.002;4.786;2023-02-26T06:43:44;0.40;99.90
21039;DHT22;10678;51.002;4.786;2023-02-26T06:46:10;0.30;99.90
21039;DHT22;10678;51.002;4.786;2023-02-26T06:48:36;0.30;99.90
21039;DHT22;10678;51.002;4.786;2023-02-26T06:51:01;0.30;99.90
21039;DHT22;10678;51.002;4.786;2023-02-26T06:53:27;0.20;99.90
21039;DHT22;10678;51.002;4.786;2023-02-26T06:55:52;0.40;99.90
21039;DHT22;10678;51.002;4.786;2023-02-26T06:58:19;0.30;99.90
21039;DHT22;10678;51.002;4.786;2023-02-26T07:00:45;0.30;99.90
21039;DHT22;10678;51.002;4.786;2023-02-26T07:03:13;0.40;99.90
21039;DHT22;10678;51.002;4.786;2023-02-26T07:05:39;0.50;99.90
21039;DHT22;10678;51.002;4.786;2023-02-26T07:08:05;0.50;99.90
21039;DHT22;10678;51.002;4.786;2023-02-26T07:10:35;0.60;99.90
21039;DHT22;10678;51.002;4.786;2023-02-26T07:13:03;0.60;99.90
21039;DHT22;10678;51.002;4.786;2023-02-26T07:15:30;0.80;99.90
21039;DHT22;10678;51.002;4.786;2023-02-26T07:17:55;0.60;99.90
21039;DHT22;10678;51.002;4.786;2023-02-26T07:20:21;0.60;99.90
21039;DHT22;10678;51.002;4.786;2023-02-26T07:22:47;0.70;99.90
21039;DHT22;10678;51.002;4.786;2023-02-26T07:25:13;0.70;99.90
21039;DHT22;10678;51.002;4.786;2023-02-26T07:27:39;0.70;99.90
21039;DHT22;10678;51.002;4.786;2023-02-26T07:30:06;0.80;99.90
21039;DHT22;10678;51.002;4.786;2023-02-26T07:32:32;0.80;99.90
21039;DHT22;10678;51.002;4.786;2023-02-26T07:34:58;0.90;99.90
21039;DHT22;10678;51.002;4.786;2023-02-26T07:37:24;0.90;99.90
21039;DHT22;10678;51.002;4.786;2023-02-26T07:39:50;0.90;99.90
21039;DHT22;10678;51.002;4.786;2023-02-26T07:42:15;1.00;99.90
21039;DHT22;10678;51.002;4.786;2023-02-26T07:44:41;1.00;99.90
21039;DHT22;10678;51.002;4.786;2023-02-26T07:47:07;1.00;99.90
21039;DHT22;10678;51.002;4.786;2023-02-26T07:49:33;1.10;99.90
21039;DHT22;10678;51.002;4.786;2023-02-26T07:51:59;1.10;99.90
21039;DHT22;10678;51.002;4.786;2023-02-26T07:54:25;1.10;99.90
21039;DHT22;10678;51.002;4.786;2023-02-26T07:56:51;1.10;99.90
21039;DHT22;10678;51.002;4.786;2023-02-26T07:59:16;1.20;99.90
21039;DHT22;10678;51.002;4.786;2023-02-26T08:01:42;1.30;99.90
21039;DHT22;10678;51.002;4.786;2023-02-26T08:04:08;1.50;99.90
21039;DHT22;10678;51.002;4.786;2023-02-26T08:06:33;1.80;99.90
21039;DHT22;10678;51.002;4.786;2023-02-26T08:09:00;2.70;99.90
21039;DHT22;10678;51.002;4.786;2023-02-26T08:11:26;3.60;99.90
21039;DHT22;10678;51.002;4.786;2023-02-26T08:13:52;3.50;99.90
21039;DHT22;10678;51.002;4.786;2023-02-26T08:16:17;3.10;99.90
21039;DHT22;10678;51.002;4.786;2023-02-26T08:18:43;2.90;99.90
21039;DHT22;10678;51.002;4.786;2023-02-26T08:21:09;2.80;99.90
21039;DHT22;10678;51.002;4.786;2023-02-26T08:23:36;2.70;99.90
21039;DHT22;10678;51.002;4.786;2023-02-26T08:26:07;2.70;99.90
21039;DHT22;10678;51.002;4.786;2023-02-26T08:28:33;2.80;99.90
21039;DHT22;10678;51.002;4.786;2023-02-26T08:30:59;3.00;99.90
21039;DHT22;10678;51.002;4.786;2023-02-26T08:33:25;3.10;99.90
21039;DHT22;10678;51.002;4.786;2023-02-26T08:35:51;3.70;99.90
21039;DHT22;10678;51.002;4.786;2023-02-26T08:38:18;5.40;99.90
21039;DHT22;10678;51.002;4.786;2023-02-26T08:40:44;6.10;99.90
21039;DHT22;10678;51.002;4.786;2023-02-26T08:43:10;6.10;99.90
21039;DHT22;10678;51.002;4.786;2023-02-26T08:45:38;5.70;99.90
21039;DHT22;10678;51.002;4.786;2023-02-26T08:48:04;6.00;99.90
21039;DHT22;10678;51.002;4.786;2023-02-26T08:50:29;6.90;99.90
21039;DHT22;10678;51.002;4.786;2023-02-26T08:52:55;7.90;99.90
21039;DHT22;10678;51.002;4.786;2023-02-26T08:55:21;7.20;99.90
21039;DHT22;10678;51.002;4.786;2023-02-26T08:57:47;6.60;99.90
21039;DHT22;10678;51.002;4.786;2023-02-26T09:00:13;7.00;99.90
21039;DHT22;10678;51.002;4.786;2023-02-26T09:02:41;7.30;99.90
21039;DHT22;10678;51.002;4.786;2023-02-26T09:05:07;7.30;99.90
21039;DHT22;10678;51.002;4.786;2023-02-26T09:07:33;7.40;99.90
21039;DHT22;10678;51.002;4.786;2023-02-26T09:09:59;7.10;99.90
21039;DHT22;10678;51.002;4.786;2023-02-26T09:12:24;8.10;99.90
21039;DHT22;10678;51.002;4.786;2023-02-26T09:14:50;9.90;99.90
21039;DHT22;10678;51.002;4.786;2023-02-26T09:17:16;12.10;99.90
21039;DHT22;10678;51.002;4.786;2023-02-26T09:19:41;13.40;99.00
21039;DHT22;10678;51.002;4.786;2023-02-26T09:22:07;14.70;94.40
21039;DHT22;10678;51.002;4.786;2023-02-26T09:24:33;15.40;91.30
21039;DHT22;10678;51.002;4.786;2023-02-26T09:26:58;16.50;89.20
21039;DHT22;10678;51.002;4.786;2023-02-26T09:29:25;16.40;83.50
21039;DHT22;10678;51.002;4.786;2023-02-26T09:31:51;16.40;81.50
21039;DHT22;10678;51.002;4.786;2023-02-26T09:34:16;17.00;78.80
21039;DHT22;10678;51.002;4.786;2023-02-26T09:36:42;17.50;75.80
21039;DHT22;10678;51.002;4.786;2023-02-26T09:39:09;18.90;74.50
21039;DHT22;10678;51.002;4.786;2023-02-26T09:41:45;19.00;68.30
21039;DHT22;10678;51.002;4.786;2023-02-26T09:44:22;19.00;66.30
21039;DHT22;10678;51.002;4.786;2023-02-26T09:52:42;17.10;66.30
21039;DHT22;10678;51.002;4.786;2023-02-26T09:55:29;17.20;68.00
21039;DHT22;10678;51.002;4.786;2023-02-26T09:58:00;18.30;64.80
21039;DHT22;10678;51.002;4.786;2023-02-26T10:00:36;17.90;63.70
21039;DHT22;10678;51.002;4.786;2023-02-26T10:03:27;16.90;64.60
21039;DHT22;10678;51.002;4.786;2023-02-26T10:08:43;15.80;67.20
21039;DHT22;10678;51.002;4.786;2023-02-26T10:13:49;16.70;64.30
21039;DHT22;10678;51.002;4.786;2023-02-26T10:16:20;16.00;65.70
21039;DHT22;10678;51.002;4.786;2023-02-26T10:18:54;15.00;64.50
21039;DHT22;10678;51.002;4.786;2023-02-26T10:21:24;13.40;69.10
21039;DHT22;10678;51.002;4.786;2023-02-26T10:23:54;12.20;72.60
21039;DHT22;10678;51.002;4.786;2023-02-26T10:31:38;10.40;81.50
21039;DHT22;10678;51.002;4.786;2023-02-26T10:34:25;11.10;81.20
21039;DHT22;10678;51.002;4.786;2023-02-26T10:39:53;10.70;81.80
21039;DHT22;10678;51.002;4.786;2023-02-26T10:42:38;12.20;77.10
21039;DHT22;10678;51.002;4.786;2023-02-26T10:45:44;12.90;74.00
21039;DHT22;10678;51.002;4.786;2023-02-26T10:50:55;12.60;71.10
21039;DHT22;10678;51.002;4.786;2023-02-26T10:53:22;11.60;75.20
21039;DHT22;10678;51.002;4.786;2023-02-26T10:58:25;11.10;77.00
21039;DHT22;10678;51.002;4.786;2023-02-26T11:00:53;10.60;80.20
21039;DHT22;10678;51.002;4.786;2023-02-26T11:03:30;10.70;78.10
21039;DHT22;10678;51.002;4.786;2023-02-26T11:05:57;9.90;78.40
21039;DHT22;10678;51.002;4.786;2023-02-26T11:08:26;8.70;83.60
21039;DHT22;10678;51.002;4.786;2023-02-26T11:10:54;8.30;87.80
21039;DHT22;10678;51.002;4.786;2023-02-26T11:13:22;7.70;90.50
21039;DHT22;10678;51.002;4.786;2023-02-26T11:15:51;7.20;91.80
21039;DHT22;10678;51.002;4.786;2023-02-26T11:18:22;8.40;91.70
21039;DHT22;10678;51.002;4.786;2023-02-26T11:20:53;10.80;82.10
21039;DHT22;10678;51.002;4.786;2023-02-26T11:23:21;11.60;78.90
21039;DHT22;10678;51.002;4.786;2023-02-26T11:26:37;11.50;77.60
21039;DHT22;10678;51.002;4.786;2023-02-26T11:28:44;10.90;78.70
21039;DHT22;10678;51.002;4.786;2023-02-26T11:31:13;12.50;73.20
21039;DHT22;10678;51.002;4.786;2023-02-26T11:33:45;13.20;72.90
21039;DHT22;10678;51.002;4.786;2023-02-26T11:36:19;15.50;68.50
21039;DHT22;10678;51.002;4.786;2023-02-26T11:38:51;18.00;62.40
21039;DHT22;10678;51.002;4.786;2023-02-26T11:41:17;17.50;59.60
21039;DHT22;10678;51.002;4.786;2023-02-26T11:43:47;17.20;60.00
21039;DHT22;10678;51.002;4.786;2023-02-26T11:46:13;18.20;58.60
21039;DHT22;10678;51.002;4.786;2023-02-26T11:48:49;20.00;55.80
21039;DHT22;10678;51.002;4.786;2023-02-26T11:51:20;19.90;53.80
21039;DHT22;10678;51.002;4.786;2023-02-26T11:53:51;19.30;56.20
21039;DHT22;10678;51.002;4.786;2023-02-26T11:56:35;20.00;54.30
21039;DHT22;10678;51.002;4.786;2023-02-26T11:59:20;20.30;52.60
21039;DHT22;10678;51.002;4.786;2023-02-26T12:01:47;16.40;56.90
21039;DHT22;10678;51.002;4.786;2023-02-26T12:04:15;13.50;62.30
21039;DHT22;10678;51.002;4.786;2023-02-26T12:06:44;13.50;65.80
21039;DHT22;10678;51.002;4.786;2023-02-26T12:09:12;13.00;67.30
21039;DHT22;10678;51.002;4.786;2023-02-26T12:20:26;18.60;56.30
21039;DHT22;10678;51.002;4.786;2023-02-26T12:23:03;18.60;55.00
21039;DHT22;10678;51.002;4.786;2023-02-26T12:25:59;19.30;54.60
21039;DHT22;10678;51.002;4.786;2023-02-26T12:33:51;15.70;59.90
21039;DHT22;10678;51.002;4.786;2023-02-26T12:44:57;12.10;68.00
21039;DHT22;10678;51.002;4.786;2023-02-26T12:59:36;17.20;54.70
21039;DHT22;10678;51.002;4.786;2023-02-26T13:05:23;17.60;54.40
21039;DHT22;10678;51.002;4.786;2023-02-26T13:07:54;18.50;52.00
21039;DHT22;10678;51.002;4.786;2023-02-26T13:16:36;14.10;56.70
21039;DHT22;10678;51.002;4.786;2023-02-26T13:19:14;12.00;59.50
21039;DHT22;10678;51.002;4.786;2023-02-26T13:21:55;10.80;63.30
21039;DHT22;10678;51.002;4.786;2023-02-26T13:24:35;10.20;68.70
21039;DHT22;10678;51.002;4.786;2023-02-26T13:27:04;9.90;71.80
21039;DHT22;10678;51.002;4.786;2023-02-26T13:29:35;9.60;79.20
21039;DHT22;10678;51.002;4.786;2023-02-26T13:32:11;9.70;85.30
21039;DHT22;10678;51.002;4.786;2023-02-26T13:34:47;9.60;77.00
21039;DHT22;10678;51.002;4.786;2023-02-26T13:37:23;8.90;73.80
21039;DHT22;10678;51.002;4.786;2023-02-26T13:40:01;8.50;74.70
21039;DHT22;10678;51.002;4.786;2023-02-26T13:42:58;8.10;79.70
21039;DHT22;10678;51.002;4.786;2023-02-26T13:45:56;7.60;80.40
21039;DHT22;10678;51.002;4.786;2023-02-26T13:51:43;7.40;89.10
21039;DHT22;10678;51.002;4.786;2023-02-26T14:04:57;6.70;86.80
21039;DHT22;10678;51.002;4.786;2023-02-26T14:13:16;6.60;86.50
21039;DHT22;10678;51.002;4.786;2023-02-26T14:15:59;6.40;89.20
21039;DHT22;10678;51.002;4.786;2023-02-26T14:24:01;6.20;91.40
21039;DHT22;10678;51.002;4.786;2023-02-26T14:26:31;6.30;91.70
21039;DHT22;10678;51.002;4.786;2023-02-26T14:34:27;6.20;91.30
21039;DHT22;10678;51.002;4.786;2023-02-26T14:37:00;6.20;90.40
21039;DHT22;10678;51.002;4.786;2023-02-26T14:39:38;6.30;90.80
21039;DHT22;10678;51.002;4.786;2023-02-26T14:42:31;6.20;90.30
21039;DHT22;10678;51.002;4.786;2023-02-26T14:47:43;6.10;91.00
21039;DHT22;10678;51.002;4.786;2023-02-26T14:50:20;6.20;92.10
21039;DHT22;10678;51.002;4.786;2023-02-26T14:53:12;6.20;91.90
21039;DHT22;10678;51.002;4.786;2023-02-26T14:59:47;6.30;92.80
21039;DHT22;10678;51.002;4.786;2023-02-26T15:02:29;6.40;94.20
21039;DHT22;10678;51.002;4.786;2023-02-26T15:08:21;6.30;93.00
21039;DHT22;10678;51.002;4.786;2023-02-26T15:11:03;6.10;92.60
21039;DHT22;10678;51.002;4.786;2023-02-26T15:13:57;6.00;93.80
21039;DHT22;10678;51.002;4.786;2023-02-26T15:22:17;6.20;94.40
21039;DHT22;10678;51.002;4.786;2023-02-26T15:24:47;6.30;94.40
21039;DHT22;10678;51.002;4.786;2023-02-26T15:27:16;6.30;94.40
21039;DHT22;10678;51.002;4.786;2023-02-26T15:29:42;6.30;94.50
21039;DHT22;10678;51.002;4.786;2023-02-26T15:32:29;6.20;94.20
21039;DHT22;10678;51.002;4.786;2023-02-26T15:37:40;6.00;95.30
21039;DHT22;10678;51.002;4.786;2023-02-26T15:40:07;5.90;95.20
21039;DHT22;10678;51.002;4.786;2023-02-26T15:42:40;5.90;95.80
21039;DHT22;10678;51.002;4.786;2023-02-26T15:45:46;5.90;94.90
21039;DHT22;10678;51.002;4.786;2023-02-26T15:48:19;5.90;95.40
21039;DHT22;10678;51.002;4.786;2023-02-26T15:50:48;5.90;96.40
21039;DHT22;10678;51.002;4.786;2023-02-26T15:53:23;5.90;96.10
21039;DHT22;10678;51.002;4.786;2023-02-26T15:55:53;5.90;96.60
21039;DHT22;10678;51.002;4.786;2023-02-26T15:58:32;5.90;97.00
21039;DHT22;10678;51.002;4.786;2023-02-26T16:01:00;6.00;97.40
21039;DHT22;10678;51.002;4.786;2023-02-26T16:03:30;6.20;97.50
21039;DHT22;10678;51.002;4.786;2023-02-26T16:05:57;6.10;96.70
21039;DHT22;10678;51.002;4.786;2023-02-26T16:08:23;6.00;97.10
21039;DHT22;10678;51.002;4.786;2023-02-26T16:10:51;5.90;96.90
21039;DHT22;10678;51.002;4.786;2023-02-26T16:13:31;5.90;97.60
21039;DHT22;10678;51.002;4.786;2023-02-26T16:16:00;5.90;97.50
21039;DHT22;10678;51.002;4.786;2023-02-26T16:18:29;5.90;97.70
21039;DHT22;10678;51.002;4.786;2023-02-26T16:20:56;5.90;98.20
21039;DHT22;10678;51.002;4.786;2023-02-26T16:23:27;5.80;98.90
21039;DHT22;10678;51.002;4.786;2023-02-26T16:26:05;5.80;99.60
21039;DHT22;10678;51.002;4.786;2023-02-26T16:28:38;5.80;98.60
21039;DHT22;10678;51.002;4.786;2023-02-26T16:31:21;5.80;98.50
21039;DHT22;10678;51.002;4.786;2023-02-26T16:36:23;5.60;99.80
21039;DHT22;10678;51.002;4.786;2023-02-26T16:41:29;5.60;99.80
21039;DHT22;10678;51.002;4.786;2023-02-26T16:43:57;5.60;99.90
21039;DHT22;10678;51.002;4.786;2023-02-26T16:46:41;5.60;99.90
21039;DHT22;10678;51.002;4.786;2023-02-26T16:51:39;5.50;99.90
21039;DHT22;10678;51.002;4.786;2023-02-26T16:54:55;5.40;99.90
21039;DHT22;10678;51.002;4.786;2023-02-26T16:56:59;5.30;99.90
21039;DHT22;10678;51.002;4.786;2023-02-26T16:59:31;5.30;99.90
21039;DHT22;10678;51.002;4.786;2023-02-26T17:02:08;5.30;99.90
21039;DHT22;10678;51.002;4.786;2023-02-26T17:04:37;5.30;99.90
21039;DHT22;10678;51.002;4.786;2023-02-26T17:07:27;5.20;99.90
21039;DHT22;10678;51.002;4.786;2023-02-26T17:12:53;5.10;99.90
21039;DHT22;10678;51.002;4.786;2023-02-26T17:15:29;5.00;99.90
21039;DHT22;10678;51.002;4.786;2023-02-26T17:17:55;5.00;99.90
21039;DHT22;10678;51.002;4.786;2023-02-26T17:20:27;4.90;99.90
21039;DHT22;10678;51.002;4.786;2023-02-26T17:22:54;4.80;99.90
21039;DHT22;10678;51.002;4.786;2023-02-26T17:25:21;4.60;99.90
21039;DHT22;10678;51.002;4.786;2023-02-26T17:27:50;4.60;99.90
21039;DHT22;10678;51.002;4.786;2023-02-26T17:30:21;4.40;99.90
21039;DHT22;10678;51.002;4.786;2023-02-26T17:32:48;4.30;99.90
21039;DHT22;10678;51.002;4.786;2023-02-26T17:35:16;4.30;99.90
21039;DHT22;10678;51.002;4.786;2023-02-26T17:37:44;4.30;99.90
21039;DHT22;10678;51.002;4.786;2023-02-26T17:40:27;4.20;99.90
21039;DHT22;10678;51.002;4.786;2023-02-26T17:42:53;4.20;99.90
21039;DHT22;10678;51.002;4.786;2023-02-26T17:45:20;4.10;99.90
21039;DHT22;10678;51.002;4.786;2023-02-26T17:47:46;4.00;99.90
21039;DHT22;10678;51.002;4.786;2023-02-26T17:53:03;3.80;99.90
21039;DHT22;10678;51.002;4.786;2023-02-26T17:55:29;3.80;99.90
21039;DHT22;10678;51.002;4.786;2023-02-26T17:57:55;3.60;99.90
21039;DHT22;10678;51.002;4.786;2023-02-26T18:00:22;3.60;99.90
21039;DHT22;10678;51.002;4.786;2023-02-26T18:02:47;3.60;99.90
21039;DHT22;10678;51.002;4.786;2023-02-26T18:05:15;3.60;99.90
21039;DHT22;10678;51.002;4.786;2023-02-26T18:07:41;3.60;99.90
21039;DHT22;10678;51.002;4.786;2023-02-26T18:10:10;3.70;99.90
21039;DHT22;10678;51.002;4.786;2023-02-26T18:12:39;3.60;99.90
21039;DHT22;10678;51.002;4.786;2023-02-26T18:15:05;3.50;99.90
21039;DHT22;10678;51.002;4.786;2023-02-26T18:17:31;3.50;99.90
21039;DHT22;10678;51.002;4.786;2023-02-26T18:19:57;3.40;99.90
21039;DHT22;10678;51.002;4.786;2023-02-26T18:22:23;3.40;99.90
21039;DHT22;10678;51.002;4.786;2023-02-26T18:24:50;3.30;99.90
21039;DHT22;10678;51.002;4.786;2023-02-26T18:27:21;3.20;99.90
21039;DHT22;10678;51.002;4.786;2023-02-26T18:29:48;3.20;99.90
21039;DHT22;10678;51.002;4.786;2023-02-26T18:32:24;3.10;99.90
21039;DHT22;10678;51.002;4.786;2023-02-26T18:34:52;3.10;99.90
21039;DHT22;10678;51.002;4.786;2023-02-26T18:37:20;3.00;99.90
21039;DHT22;10678;51.002;4.786;2023-02-26T18:39:46;2.90;99.90
21039;DHT22;10678;51.002;4.786;2023-02-26T18:42:26;2.90;99.90
21039;DHT22;10678;51.002;4.786;2023-02-26T18:44:53;2.90;99.90
21039;DHT22;10678;51.002;4.786;2023-02-26T18:47:20;2.80;99.90
21039;DHT22;10678;51.002;4.786;2023-02-26T18:49:47;2.80;99.90
21039;DHT22;10678;51.002;4.786;2023-02-26T18:52:14;2.70;99.90
21039;DHT22;10678;51.002;4.786;2023-02-26T18:54:40;2.70;99.90
21039;DHT22;10678;51.002;4.786;2023-02-26T18:57:08;2.70;99.90
21039;DHT22;10678;51.002;4.786;2023-02-26T18:59:34;2.70;99.90
21039;DHT22;10678;51.002;4.786;2023-02-26T19:02:02;2.70;99.90
21039;DHT22;10678;51.002;4.786;2023-02-26T19:04:28;2.60;99.90